createdAt,value
2022-12-16T00:02:22.498Z,6.65
2022-12-16T00:04:50.256Z,6.52
2022-12-16T00:07:18.295Z,6.87
2022-12-16T00:09:46.205Z,7.15
2022-12-16T00:12:14.099Z,6.81
2022-12-16T00:14:41.913Z,6.99
2022-12-16T00:17:09.600Z,6.99
2022-12-16T00:19:38.464Z,6.71
2022-12-16T00:22:06.362Z,7.02
2022-12-16T00:24:34.149Z,6.89
2022-12-16T00:27:03.164Z,6.75
2022-12-16T00:29:30.982Z,6.83
2022-12-16T00:31:59.979Z,6.86
2022-12-16T00:34:27.687Z,7.03
2022-12-16T00:36:56.569Z,6.90
2022-12-16T00:39:24.499Z,6.85
2022-12-16T00:41:52.625Z,6.81
2022-12-16T00:44:20.340Z,7.01
2022-12-16T00:46:48.514Z,6.98
2022-12-16T00:49:42.199Z,6.94
2022-12-16T00:52:10.025Z,7.19
2022-12-16T00:54:37.768Z,7.20
2022-12-16T00:57:05.526Z,7.02
2022-12-16T00:59:34.417Z,7.34
2022-12-16T01:02:02.377Z,7.19
2022-12-16T01:04:30.661Z,7.21
2022-12-16T01:06:58.378Z,7.14
2022-12-16T01:09:26.483Z,7.14
2022-12-16T01:11:54.334Z,7.35
2022-12-16T01:14:22.846Z,7.28
2022-12-16T01:16:50.938Z,7.20
2022-12-16T01:19:18.743Z,7.16
2022-12-16T01:21:47.525Z,7.34
2022-12-16T01:24:15.250Z,7.28
2022-12-16T01:26:43.212Z,7.49
2022-12-16T01:29:36.176Z,7.64
2022-12-16T01:32:04.928Z,7.58
2022-12-16T01:34:33.593Z,7.55
2022-12-16T01:37:01.419Z,7.60
2022-12-16T01:39:56.613Z,7.29
2022-12-16T01:42:24.672Z,7.12
2022-12-16T01:44:57.164Z,7.41
2022-12-16T01:47:33.409Z,7.36
2022-12-16T01:50:11.854Z,7.22
2022-12-16T01:52:45.244Z,7.17
2022-12-16T01:55:36.099Z,7.35
2022-12-16T01:58:14.086Z,7.36
2022-12-16T02:00:42.263Z,7.46
2022-12-16T02:03:15.205Z,7.29
2022-12-16T02:05:44.923Z,7.34
2022-12-16T02:08:15.168Z,7.42
2022-12-16T02:13:45.892Z,7.37
2022-12-16T02:16:18.995Z,7.20
2022-12-16T02:19:15.366Z,6.88
2022-12-16T02:22:11.655Z,7.15
2022-12-16T02:24:44.512Z,7.30
2022-12-16T02:30:58.773Z,7.27
2022-12-16T02:33:49.550Z,7.35
2022-12-16T02:36:30.852Z,7.24
2022-12-16T02:39:18.768Z,7.28
2022-12-16T02:42:06.639Z,7.09
2022-12-16T02:47:40.783Z,7.40
2022-12-16T02:50:44.250Z,7.35
2022-12-16T02:53:41.327Z,7.36
2022-12-16T02:56:09.177Z,7.20
2022-12-16T02:58:51.225Z,7.14
2022-12-16T03:07:24.727Z,7.40
2022-12-16T03:09:55.132Z,7.39
2022-12-16T03:12:23.840Z,7.16
2022-12-16T03:14:55.371Z,7.37
2022-12-16T03:20:17.171Z,7.35
2022-12-16T03:22:48.418Z,7.50
2022-12-16T03:25:16.663Z,7.31
2022-12-16T03:27:57.819Z,7.41
2022-12-16T03:30:40.088Z,7.44
2022-12-16T03:33:30.894Z,7.42
2022-12-16T03:36:21.875Z,7.21
2022-12-16T03:38:51.475Z,7.39
2022-12-16T03:41:21.164Z,7.18
2022-12-16T03:43:52.643Z,7.10
2022-12-16T03:46:20.859Z,7.05
2022-12-16T03:48:50.762Z,7.22
2022-12-16T03:54:06.896Z,7.19
2022-12-16T03:56:34.956Z,7.33
2022-12-16T03:59:02.689Z,7.40
2022-12-16T04:01:30.872Z,7.33
2022-12-16T04:03:58.957Z,7.46
2022-12-16T04:06:26.820Z,7.41
2022-12-16T04:11:58.576Z,7.23
2022-12-16T04:14:48.990Z,7.41
2022-12-16T04:17:39.214Z,7.36
2022-12-16T04:20:34.316Z,7.20
2022-12-16T04:23:21.253Z,7.06
2022-12-16T04:28:38.756Z,7.19
2022-12-16T04:31:06.997Z,7.10
2022-12-16T04:33:53.604Z,6.85
2022-12-16T04:36:39.989Z,6.76
2022-12-16T04:39:27.566Z,6.70
2022-12-16T04:45:18.782Z,7.00
2022-12-16T04:48:24.164Z,7.05
2022-12-16T04:51:10.666Z,6.67
2022-12-16T04:53:57.086Z,6.82
2022-12-16T04:56:44.649Z,6.69
2022-12-16T05:02:36.158Z,6.33
2022-12-16T05:05:40.847Z,6.67
2022-12-16T05:08:28.407Z,6.36
2022-12-16T05:11:14.787Z,6.34
2022-12-16T05:14:03.243Z,6.40
2022-12-16T05:17:03.375Z,6.59
2022-12-16T05:19:49.715Z,6.59
2022-12-16T05:22:36.158Z,6.33
2022-12-16T05:25:23.597Z,6.45
2022-12-16T05:28:11.625Z,6.44
2022-12-16T05:34:01.973Z,6.04
2022-12-16T05:36:48.478Z,6.31
2022-12-16T05:39:34.955Z,6.62
2022-12-16T05:42:25.419Z,6.42
2022-12-16T05:45:11.996Z,6.35
2022-12-16T05:47:59.454Z,6.21
2022-12-16T05:50:47.369Z,6.17
2022-12-16T05:53:33.920Z,6.23
2022-12-16T05:56:46.893Z,6.29
2022-12-16T05:59:33.456Z,6.36
2022-12-16T06:02:22.532Z,6.11
2022-12-16T06:05:09.036Z,6.08
2022-12-16T06:08:00.431Z,6.11
2022-12-16T06:10:46.829Z,6.22
2022-12-16T06:13:34.671Z,6.13
2022-12-16T06:16:30.817Z,6.09
2022-12-16T06:19:17.559Z,6.07
2022-12-16T06:22:05.899Z,6.30
2022-12-16T06:25:04.829Z,6.22
2022-12-16T06:27:53.516Z,6.09
2022-12-16T06:30:50.879Z,6.03
2022-12-16T06:33:40.898Z,6.12
2022-12-16T06:36:32.343Z,6.25
2022-12-16T06:39:20.480Z,6.07
2022-12-16T06:46:14.115Z,6.32
2022-12-16T06:49:00.341Z,6.15
2022-12-16T06:51:49.544Z,6.25
2022-12-16T06:54:35.564Z,6.50
2022-12-16T06:57:21.583Z,6.21
2022-12-16T07:00:07.533Z,6.00
2022-12-16T07:02:53.496Z,6.37
2022-12-16T07:05:39.721Z,6.66
2022-12-16T07:08:28.578Z,6.70
2022-12-16T07:11:22.604Z,6.63
2022-12-16T07:14:08.859Z,6.38
2022-12-16T07:16:58.334Z,6.53
2022-12-16T07:19:49.279Z,6.41
2022-12-16T07:22:35.351Z,6.75
2022-12-16T07:25:21.591Z,6.76
2022-12-16T07:28:12.278Z,6.97
2022-12-16T07:31:16.704Z,6.88
2022-12-16T07:34:02.668Z,6.72
2022-12-16T07:36:48.952Z,6.62
2022-12-16T07:39:35.050Z,6.47
2022-12-16T07:42:49.925Z,6.57
2022-12-16T07:45:40.348Z,6.40
2022-12-16T07:48:43.804Z,6.37
2022-12-16T07:51:30.069Z,6.22
2022-12-16T07:54:18.716Z,6.43
2022-12-16T07:57:05.083Z,6.09
2022-12-16T07:59:50.975Z,6.30
2022-12-16T08:02:36.862Z,6.29
2022-12-16T08:05:23.292Z,6.15
2022-12-16T08:08:15.276Z,6.04
2022-12-16T08:11:01.617Z,6.17
2022-12-16T08:13:47.403Z,6.32
2022-12-16T08:16:33.831Z,6.29
2022-12-16T08:19:20.237Z,6.20
2022-12-16T08:22:06.492Z,5.95
2022-12-16T08:24:55.962Z,5.79
2022-12-16T08:27:42.597Z,5.88
2022-12-16T08:30:28.923Z,6.10
2022-12-16T08:33:19.370Z,6.13
2022-12-16T08:36:26.499Z,5.89
2022-12-16T08:39:12.540Z,5.68
2022-12-16T08:42:01.002Z,5.73
2022-12-16T08:44:47.277Z,6.01
2022-12-16T08:47:33.703Z,5.94
2022-12-16T08:50:20.122Z,6.08
2022-12-16T08:53:06.428Z,6.01
2022-12-16T08:55:52.210Z,5.87
2022-12-16T08:58:42.283Z,6.00
2022-12-16T09:01:28.895Z,5.92
2022-12-16T09:04:16.192Z,6.22
2022-12-16T09:07:02.670Z,5.98
2022-12-16T09:09:49.218Z,6.44
2022-12-16T09:12:35.054Z,6.21
2022-12-16T09:15:24.011Z,6.24
2022-12-16T09:18:14.094Z,6.61
2022-12-16T09:21:00.537Z,6.37
2022-12-16T09:23:46.761Z,6.42
2022-12-16T09:26:33.130Z,6.42
2022-12-16T09:29:18.946Z,6.08
2022-12-16T09:32:04.640Z,6.59
2022-12-16T09:34:51.108Z,6.57
2022-12-16T09:37:37.355Z,6.82
2022-12-16T09:40:23.882Z,6.48
2022-12-16T09:43:09.729Z,6.72
2022-12-16T09:46:07.575Z,7.22
2022-12-16T09:49:02.614Z,7.15
2022-12-16T09:51:48.770Z,7.25
2022-12-16T09:54:38.484Z,7.31
2022-12-16T09:57:26.210Z,7.30
2022-12-16T10:00:20.191Z,7.57
2022-12-16T10:03:08.785Z,7.51
2022-12-16T10:06:21.487Z,7.63
2022-12-16T10:09:21.174Z,7.96
2022-12-16T10:12:39.452Z,7.93
2022-12-16T10:16:09.984Z,7.53
2022-12-16T10:19:14.543Z,7.64
2022-12-16T10:22:30.600Z,8.17
2022-12-16T10:25:27.542Z,8.14
2022-12-16T10:28:24.734Z,8.37
2022-12-16T10:31:11.026Z,7.95
2022-12-16T10:33:57.328Z,8.44
2022-12-16T10:36:43.639Z,8.31
2022-12-16T10:39:49.773Z,8.45
2022-12-16T10:42:47.275Z,8.12
2022-12-16T10:45:59.099Z,8.25
2022-12-16T10:48:55.021Z,8.17
2022-12-16T10:51:46.542Z,7.78
2022-12-16T10:54:38.473Z,7.79
2022-12-16T10:57:39.815Z,8.09
2022-12-16T11:00:38.710Z,8.29
2022-12-16T11:03:54.961Z,8.21
2022-12-16T11:06:46.507Z,8.19
2022-12-16T11:09:46.864Z,8.13
2022-12-16T11:12:38.816Z,7.97
2022-12-16T11:15:39.956Z,7.96
2022-12-16T11:18:39.139Z,8.22
2022-12-16T11:21:45.475Z,7.82
2022-12-16T11:24:37.422Z,7.93
2022-12-16T11:27:43.082Z,8.07
2022-12-16T11:30:32.076Z,7.75
2022-12-16T11:33:23.462Z,8.22
2022-12-16T11:36:13.284Z,8.30
2022-12-16T11:39:05.722Z,8.48
2022-12-16T11:41:56.769Z,8.46
2022-12-16T11:44:55.254Z,8.01
2022-12-16T11:48:09.434Z,8.02
2022-12-16T11:51:12.477Z,7.81
2022-12-16T11:54:07.077Z,7.79
2022-12-16T11:56:56.752Z,7.78
2022-12-16T11:59:53.082Z,7.86
2022-12-16T12:02:52.400Z,7.82
2022-12-16T12:05:56.209Z,7.66
2022-12-16T12:08:48.327Z,7.75
2022-12-16T12:11:50.258Z,7.87
2022-12-16T12:14:57.003Z,7.97
2022-12-16T12:18:06.726Z,7.96
2022-12-16T12:21:08.690Z,8.27
2022-12-16T12:24:21.274Z,8.37
2022-12-16T12:27:22.660Z,8.17
2022-12-16T12:30:25.706Z,8.29
2022-12-16T12:33:49.324Z,7.71
2022-12-16T12:36:43.810Z,7.48
2022-12-16T12:39:50.820Z,7.89
2022-12-16T12:43:06.587Z,7.91
2022-12-16T12:46:16.354Z,8.03
2022-12-16T12:49:17.379Z,8.13
2022-12-16T12:52:24.378Z,7.69
2022-12-16T12:55:19.271Z,7.77
2022-12-16T12:58:08.960Z,8.17
2022-12-16T13:01:10.859Z,8.12
2022-12-16T13:04:02.793Z,8.04
2022-12-16T13:06:49.652Z,7.79
2022-12-16T13:09:52.025Z,8.31
2022-12-16T13:12:49.419Z,8.18
2022-12-16T13:15:55.191Z,8.14
2022-12-16T13:18:45.364Z,8.25
2022-12-16T13:21:56.846Z,8.28
2022-12-16T13:24:55.374Z,8.02
2022-12-16T13:27:42.270Z,7.84
2022-12-16T13:30:31.584Z,7.96
2022-12-16T13:33:48.387Z,7.79
2022-12-16T13:36:37.555Z,7.77
2022-12-16T13:39:44.965Z,7.86
2022-12-16T13:43:08.848Z,7.63
2022-12-16T13:46:16.574Z,7.78
2022-12-16T13:49:02.923Z,7.94
2022-12-16T13:51:58.004Z,7.74
2022-12-16T13:54:55.493Z,7.93
2022-12-16T13:57:43.321Z,7.80
2022-12-16T14:00:44.238Z,7.91
2022-12-16T14:03:38.461Z,7.88
2022-12-16T14:06:32.367Z,8.12
2022-12-16T14:09:22.956Z,7.76
2022-12-16T14:12:16.603Z,7.97
2022-12-16T14:15:18.989Z,7.99
2022-12-16T14:18:16.392Z,7.94
2022-12-16T14:21:09.126Z,7.73
2022-12-16T14:24:07.804Z,7.58
2022-12-16T14:26:55.145Z,7.80
2022-12-16T14:29:47.988Z,7.70
2022-12-16T14:32:53.484Z,7.72
2022-12-16T14:35:42.769Z,7.84
2022-12-16T14:38:45.354Z,8.09
2022-12-16T14:41:42.264Z,8.05
2022-12-16T14:44:42.456Z,7.93
2022-12-16T14:47:39.664Z,7.59
2022-12-16T14:50:45.207Z,8.00
2022-12-16T14:53:32.920Z,7.97
2022-12-16T14:56:38.627Z,8.07
2022-12-16T14:59:37.976Z,7.94
2022-12-16T15:02:38.694Z,7.82
2022-12-16T15:05:25.837Z,7.98
2022-12-16T15:08:12.026Z,8.03
2022-12-16T15:10:58.482Z,8.01
2022-12-16T15:13:44.651Z,8.04
2022-12-16T15:16:42.952Z,8.10
2022-12-16T15:19:37.067Z,8.04
2022-12-16T15:22:23.216Z,7.94
2022-12-16T15:25:09.473Z,8.11
2022-12-16T15:28:04.417Z,8.13
2022-12-16T15:30:57.223Z,7.95
2022-12-16T15:33:48.590Z,7.71
2022-12-16T15:36:46.667Z,7.20
2022-12-16T15:39:41.982Z,7.52
2022-12-16T15:42:44.358Z,7.74
2022-12-16T15:45:49.069Z,7.93
2022-12-16T15:48:49.588Z,7.80
2022-12-16T15:51:42.710Z,7.83
2022-12-16T15:54:59.742Z,7.69
2022-12-16T15:57:53.332Z,7.82
2022-12-16T16:00:46.819Z,7.79
2022-12-16T16:03:46.570Z,8.01
2022-12-16T16:06:45.019Z,8.12
2022-12-16T16:09:51.995Z,8.03
2022-12-16T16:12:38.622Z,7.92
2022-12-16T16:15:26.860Z,7.79
2022-12-16T16:18:16.162Z,7.81
2022-12-16T16:21:02.994Z,7.93
2022-12-16T16:23:49.224Z,7.94
2022-12-16T16:26:38.628Z,8.04
2022-12-16T16:29:24.866Z,8.06
2022-12-16T16:32:11.597Z,8.07
2022-12-16T16:34:57.245Z,8.12
2022-12-16T16:37:43.560Z,8.12
2022-12-16T16:40:55.870Z,7.82
2022-12-16T16:43:42.739Z,7.82
2022-12-16T16:46:59.505Z,7.86
2022-12-16T16:49:51.362Z,8.01
2022-12-16T16:52:42.513Z,7.89
2022-12-16T16:55:40.873Z,7.93
2022-12-16T16:58:38.789Z,7.80
2022-12-16T17:01:24.873Z,7.78
2022-12-16T17:04:10.970Z,7.86
2022-12-16T17:06:56.837Z,8.06
2022-12-16T17:09:42.416Z,7.89
2022-12-16T17:12:37.678Z,7.86
2022-12-16T17:15:43.768Z,8.10
2022-12-16T17:18:30.061Z,8.02
2022-12-16T17:21:16.333Z,7.89
2022-12-16T17:24:02.092Z,8.09
2022-12-16T17:26:48.152Z,7.98
2022-12-16T17:29:38.375Z,7.93
2022-12-16T17:32:25.174Z,7.99
2022-12-16T17:35:11.921Z,7.97
2022-12-16T17:37:58.105Z,8.10
2022-12-16T17:40:44.956Z,8.07
2022-12-16T17:43:31.722Z,7.92
2022-12-16T17:46:23.996Z,7.68
2022-12-16T17:49:10.680Z,7.65
2022-12-16T17:51:57.571Z,7.87
2022-12-16T17:54:44.408Z,7.79
2022-12-16T17:57:30.581Z,7.73
2022-12-16T18:00:16.876Z,7.56
2022-12-16T18:03:07.706Z,7.67
2022-12-16T18:05:53.998Z,7.71
2022-12-16T18:08:39.936Z,7.68
2022-12-16T18:11:25.628Z,7.74
2022-12-16T18:14:11.898Z,7.88
2022-12-16T18:16:57.911Z,7.63
2022-12-16T18:19:43.543Z,7.74
2022-12-16T18:22:29.360Z,7.78
2022-12-16T18:25:15.079Z,7.91
2022-12-16T18:28:00.767Z,8.03
2022-12-16T18:30:47.060Z,7.89
2022-12-16T18:33:34.818Z,7.56
2022-12-16T18:36:20.945Z,7.33
2022-12-16T18:39:06.663Z,7.65
2022-12-16T18:41:59.183Z,7.78
2022-12-16T18:44:45.341Z,7.84
2022-12-16T18:47:31.755Z,7.94
2022-12-16T18:50:21.100Z,8.07
2022-12-16T18:53:10.006Z,7.77
2022-12-16T18:55:55.796Z,7.66
2022-12-16T18:58:56.893Z,7.80
2022-12-16T19:01:42.792Z,7.75
2022-12-16T19:04:28.472Z,8.01
2022-12-16T19:07:13.951Z,7.82
2022-12-16T19:09:59.723Z,7.93
2022-12-16T19:12:45.493Z,7.86
2022-12-16T19:15:32.675Z,8.00
2022-12-16T19:18:19.844Z,7.77
2022-12-16T19:21:15.737Z,7.16
2022-12-16T19:24:01.944Z,7.35
2022-12-16T19:26:47.682Z,7.57
2022-12-16T19:29:33.416Z,7.84
2022-12-16T19:32:19.272Z,7.92
2022-12-16T19:35:05.169Z,7.72
2022-12-16T19:37:50.727Z,7.78
2022-12-16T19:40:39.369Z,7.72
2022-12-16T19:43:25.060Z,7.55
2022-12-16T19:46:13.034Z,7.63
2022-12-16T19:48:59.150Z,7.57
2022-12-16T19:51:45.427Z,7.57
2022-12-16T19:54:37.424Z,7.70
2022-12-16T19:57:23.668Z,7.65
2022-12-16T20:00:09.517Z,7.60
2022-12-16T20:02:57.994Z,7.47
2022-12-16T20:05:52.003Z,7.49
2022-12-16T20:08:37.976Z,7.24
2022-12-16T20:11:25.190Z,7.11
2022-12-16T20:14:12.439Z,7.40
2022-12-16T20:16:59.925Z,7.38
2022-12-16T20:19:47.381Z,7.12
2022-12-16T20:22:33.738Z,7.24
2022-12-16T20:28:56.236Z,7.42
2022-12-16T20:31:42.610Z,7.31
2022-12-16T20:34:29.064Z,7.45
2022-12-16T20:37:15.405Z,7.36
2022-12-16T20:40:02.364Z,7.15
2022-12-16T20:42:48.982Z,7.41
2022-12-16T20:45:36.352Z,7.59
2022-12-16T20:48:22.710Z,7.56
2022-12-16T20:54:23.473Z,7.72
2022-12-16T20:57:12.838Z,7.73
2022-12-16T20:59:59.553Z,7.70
2022-12-16T21:02:45.991Z,7.58
2022-12-16T21:05:32.287Z,7.68
2022-12-16T21:08:18.701Z,7.75
2022-12-16T21:11:04.491Z,7.52
2022-12-16T21:13:50.544Z,7.75
2022-12-16T21:14:42.634Z,7.52
2022-12-16T21:16:36.954Z,7.70
2022-12-16T21:19:27.926Z,7.83
2022-12-16T21:22:17.083Z,7.78
2022-12-16T21:25:03.364Z,7.69
2022-12-16T21:28:00.084Z,7.72
2022-12-16T21:30:46.461Z,7.81
2022-12-16T21:33:36.998Z,7.82
2022-12-16T21:36:24.503Z,7.74
2022-12-16T21:39:10.815Z,7.76
2022-12-16T21:41:56.801Z,7.77
2022-12-16T21:44:43.176Z,7.76
2022-12-16T21:47:29.241Z,7.84
2022-12-16T21:50:15.623Z,7.26
2022-12-16T21:53:01.864Z,7.55
2022-12-16T21:55:48.298Z,7.53
2022-12-16T21:58:34.598Z,7.76
2022-12-16T22:01:20.992Z,7.57
2022-12-16T22:04:07.600Z,7.58
2022-12-16T22:06:53.546Z,7.69
2022-12-16T22:09:39.391Z,7.71
2022-12-16T22:12:25.948Z,7.35
2022-12-16T22:15:12.477Z,7.63
2022-12-16T22:17:59.001Z,7.37
2022-12-16T22:20:45.891Z,7.45
2022-12-16T22:23:31.889Z,7.59
2022-12-16T22:26:19.260Z,7.66
2022-12-16T22:29:05.525Z,7.41
2022-12-16T22:31:52.000Z,7.40
2022-12-16T22:34:38.381Z,7.38
2022-12-16T22:37:24.728Z,7.24
2022-12-16T22:40:10.615Z,7.31
2022-12-16T22:42:56.503Z,7.40
2022-12-16T22:45:42.760Z,7.38
2022-12-16T22:48:31.170Z,7.36
2022-12-16T22:51:17.036Z,7.43
2022-12-16T22:54:03.472Z,7.22
2022-12-16T22:56:49.942Z,7.32
2022-12-16T22:59:36.175Z,7.36
2022-12-16T23:02:22.617Z,7.39
2022-12-16T23:05:08.617Z,7.42
2022-12-16T23:14:42.650Z,7.62
2022-12-16T23:17:31.009Z,7.56
2022-12-16T23:20:22.951Z,7.49
2022-12-16T23:23:09.355Z,7.73
2022-12-16T23:26:14.010Z,7.79
2022-12-16T23:29:01.618Z,7.78
2022-12-16T23:31:48.019Z,7.88
2022-12-16T23:34:34.493Z,7.57
2022-12-16T23:37:20.202Z,7.65
2022-12-16T23:40:06.788Z,7.83
2022-12-16T23:42:53.062Z,7.59
2022-12-16T23:45:42.675Z,7.73
2022-12-16T23:48:29.103Z,7.88
2022-12-16T23:51:15.437Z,7.63
2022-12-16T23:54:01.793Z,7.24
2022-12-16T23:56:48.206Z,7.48
2022-12-16T23:59:34.410Z,7.68
